N492AA KSFB-KSFB
Flight info
| Callsign | N492AA |
|---|---|
| Flight time | 0h 8m |
| Altitude | VFR015 |
| Route | |
| Aircraft | P28A/L-VGD/C |
Departure
| Time | 2026-04-26 14:44 |
|---|---|
| Airport | Orlando Sanford International Airport (KSFB) |
Arrival
| Time | 2026-04-26 14:52 |
|---|---|
| Airport | Orlando Sanford International Airport (KSFB) |
| Time | Latitude | Longitude | Altitude | Speed | Heading |
|---|---|---|---|---|---|
| 2026-04-26 14:43 | 28.76990 | -81.23408 | 266 ft | 72 kts | 258° |
| 2026-04-26 14:43 | 28.76883 | -81.23965 | 476 ft | 73 kts | 246° |
| 2026-04-26 14:44 | 28.76630 | -81.24414 | 727 ft | 68 kts | 189° |
| 2026-04-26 14:44 | 28.76132 | -81.24262 | 839 ft | 81 kts | 137° |
| 2026-04-26 14:44 | 28.75917 | -81.23631 | 822 ft | 101 kts | 89° |
| 2026-04-26 14:44 | 28.75921 | -81.22854 | 632 ft | 96 kts | 88° |
| 2026-04-26 14:45 | 28.75956 | -81.22137 | 640 ft | 82 kts | 85° |
| 2026-04-26 14:45 | 28.75953 | -81.21705 | 631 ft | 81 kts | 84° |
| 2026-04-26 14:45 | 28.76090 | -81.20887 | 674 ft | 71 kts | 64° |
| 2026-04-26 14:45 | 28.76510 | -81.20653 | 586 ft | 77 kts | 335° |
| 2026-04-26 14:46 | 28.76889 | -81.21089 | 338 ft | 80 kts | 306° |
| 2026-04-26 14:46 | 28.77001 | -81.21689 | 41 ft | 74 kts | 268° |
| 2026-04-26 14:46 | 28.76996 | -81.22175 | 23 ft | 55 kts | 268° |
| 2026-04-26 14:46 | 28.76973 | -81.22690 | 135 ft | 72 kts | 262° |
| 2026-04-26 14:47 | 28.77041 | -81.23248 | 349 ft | 74 kts | 279° |
| 2026-04-26 14:47 | 28.77057 | -81.23816 | 600 ft | 67 kts | 258° |
| 2026-04-26 14:47 | 28.76686 | -81.24131 | 648 ft | 80 kts | 178° |
| 2026-04-26 14:47 | 28.76251 | -81.23916 | 611 ft | 72 kts | 137° |
| 2026-04-26 14:48 | 28.76070 | -81.23331 | 563 ft | 88 kts | 92° |
| 2026-04-26 14:48 | 28.76047 | -81.22627 | 581 ft | 90 kts | 92° |
| 2026-04-26 14:48 | 28.76039 | -81.21967 | 635 ft | 64 kts | 93° |
| 2026-04-26 14:48 | 28.76077 | -81.21459 | 415 ft | 64 kts | 64° |
| 2026-04-26 14:49 | 28.76440 | -81.21186 | 330 ft | 68 kts | 7° |
| 2026-04-26 14:49 | 28.76901 | -81.21345 | 172 ft | 76 kts | 319° |
| 2026-04-26 14:49 | 28.76999 | -81.21886 | 24 ft | 63 kts | 270° |
| 2026-04-26 14:49 | 28.76997 | -81.22372 | 78 ft | 66 kts | 267° |
| 2026-04-26 14:50 | 28.76954 | -81.22905 | 200 ft | 78 kts | 264° |
| 2026-04-26 14:50 | 28.76911 | -81.23489 | 457 ft | 73 kts | 233° |
| 2026-04-26 14:50 | 28.76417 | -81.23531 | 626 ft | 76 kts | 140° |
| 2026-04-26 14:50 | 28.76327 | -81.22923 | 734 ft | 86 kts | 77° |
| 2026-04-26 14:51 | 28.76432 | -81.22326 | 655 ft | 72 kts | 77° |
| 2026-04-26 14:51 | 28.76695 | -81.21938 | 505 ft | 64 kts | 27° |
| 2026-04-26 14:51 | 28.77137 | -81.21888 | 391 ft | 64 kts | 347° |
| 2026-04-26 14:51 | 28.77538 | -81.22101 | 350 ft | 67 kts | 316° |
| 2026-04-26 14:52 | 28.77802 | -81.22574 | 267 ft | 73 kts | 287° |
| 2026-04-26 14:52 | 28.77848 | -81.23157 | 125 ft | 74 kts | 269° |
| 2026-04-26 14:52 | 28.77848 | -81.23662 | 46 ft | 50 kts | 272° |
| 2026-04-26 14:52 | 28.77848 | -81.23966 | 46 ft | 28 kts | 268° |
| 2026-04-26 14:53 | 28.77847 | -81.24148 | 46 ft | 17 kts | 271° |
| 2026-04-26 14:53 | 28.77846 | -81.24246 | 48 ft | 7 kts | 271° |
| 2026-04-26 14:53 | 28.77840 | -81.24309 | 49 ft | 9 kts | 242° |
| 2026-04-26 14:53 | 28.77836 | -81.24316 | 49 ft | 1 kts | 242° |
| 2026-04-26 14:54 | 28.77847 | -81.24438 | 49 ft | 16 kts | 272° |
| 2026-04-26 14:54 | 28.77847 | -81.24544 | 49 ft | 13 kts | 264° |
| 2026-04-26 14:54 | 28.77825 | -81.24622 | 49 ft | 3 kts | 239° |
| 2026-04-26 14:54 | 28.77791 | -81.24649 | 50 ft | 0 kts | 200° |
| 2026-04-26 14:55 | 28.77771 | -81.24655 | 51 ft | 4 kts | 207° |
| 2026-04-26 14:55 | 28.77763 | -81.24688 | 51 ft | 3 kts | 276° |
| 2026-04-26 14:55 | 28.77764 | -81.24728 | 52 ft | 12 kts | 288° |
| 2026-04-26 14:55 | 28.77794 | -81.24770 | 52 ft | 3 kts | 313° |
| 2026-04-26 14:56 | 28.77818 | -81.24796 | 52 ft | 6 kts | 317° |
| 2026-04-26 14:56 | 28.77856 | -81.24850 | 52 ft | 9 kts | 301° |
| 2026-04-26 14:56 | 28.77883 | -81.24909 | 52 ft | 7 kts | 293° |
| 2026-04-26 14:56 | 28.77894 | -81.24963 | 52 ft | 5 kts | 230° |